Time;durP1;ratioP1;P1;durP2;ratioP2;P2;SDS_P1;SDS_P2;PMS_P1;PMS_P2;Temp;Humidity;BMP_temperature;BMP_pressure;BME280_temperature;BME280_humidity;BME280_pressure;Samples;Min_cycle;Max_cycle;Signal;HPM_P1;HPM_P2
2023/10/22 00:02:31;;;;;;;;;;;10.20;99.90;;;;;;21253676;27;19966;-80
2023/10/22 00:12:31;;;;;;;;;;;10.30;99.90;;;;;;21227212;27;19911;-79
2023/10/22 00:22:32;;;;;;;;;;;10.40;99.90;;;;;;21227829;27;19922;-80
2023/10/22 00:32:32;;;;;;;;;;;10.40;99.90;;;;;;21291283;27;20343;-80
2023/10/22 00:42:33;;;;;;;;;;;10.50;99.90;;;;;;21260040;27;20002;-80
2023/10/22 00:52:34;;;;;;;;;;;10.50;99.90;;;;;;21233567;27;19927;-80
2023/10/22 01:02:34;;;;;;;;;;;10.60;99.90;;;;;;21247438;27;19961;-80
2023/10/22 01:12:38;;;;;;;;;;;10.70;99.90;;;;;;21238506;27;19923;-80
2023/10/22 01:22:39;;;;;;;;;;;10.60;99.90;;;;;;21245493;27;19919;-81
2023/10/22 01:32:40;;;;;;;;;;;10.60;99.90;;;;;;21206938;27;20007;-81
2023/10/22 01:42:40;;;;;;;;;;;10.60;99.90;;;;;;21249378;27;20251;-81
2023/10/22 01:52:41;;;;;;;;;;;10.50;99.90;;;;;;21260598;27;19916;-81
2023/10/22 02:02:42;;;;;;;;;;;10.50;99.90;;;;;;21230700;27;19916;-80
2023/10/22 02:12:42;;;;;;;;;;;10.40;99.90;;;;;;21242473;27;19911;-80
2023/10/22 02:22:43;;;;;;;;;;;10.40;99.90;;;;;;21223619;27;19915;-80
2023/10/22 02:32:44;;;;;;;;;;;10.30;99.90;;;;;;21240208;27;19961;-80
2023/10/22 02:42:44;;;;;;;;;;;10.40;99.90;;;;;;21244782;27;20406;-81
2023/10/22 02:52:45;;;;;;;;;;;10.40;99.90;;;;;;21264950;27;19911;-80
2023/10/22 03:02:45;;;;;;;;;;;10.40;99.90;;;;;;21257670;27;19915;-80
2023/10/22 03:12:46;;;;;;;;;;;10.40;99.90;;;;;;21285713;27;19937;-80
2023/10/22 03:22:47;;;;;;;;;;;10.40;99.90;;;;;;21300468;27;19923;-81
2023/10/22 03:32:48;;;;;;;;;;;10.50;99.90;;;;;;21277907;27;19968;-80
2023/10/22 03:42:51;;;;;;;;;;;10.20;99.90;;;;;;21295572;27;19920;-81
2023/10/22 03:52:52;;;;;;;;;;;10.10;99.90;;;;;;21272943;27;19943;-80
2023/10/22 04:02:53;;;;;;;;;;;10.10;99.90;;;;;;21229409;27;20008;-80
2023/10/22 04:12:54;;;;;;;;;;;10.10;99.90;;;;;;21266359;27;19915;-80
2023/10/22 04:22:55;;;;;;;;;;;10.00;99.90;;;;;;21297386;27;19919;-80
2023/10/22 04:32:56;;;;;;;;;;;9.70;99.90;;;;;;21256892;27;19957;-80
2023/10/22 04:42:59;;;;;;;;;;;9.60;99.90;;;;;;21265210;27;19919;-80
2023/10/22 04:53:00;;;;;;;;;;;9.70;99.90;;;;;;21264012;27;19911;-80
2023/10/22 05:03:01;;;;;;;;;;;9.30;99.90;;;;;;21260650;27;19915;-80
2023/10/22 05:13:01;;;;;;;;;;;9.40;99.90;;;;;;21250201;27;19937;-80
2023/10/22 05:23:03;;;;;;;;;;;9.50;99.90;;;;;;21319946;27;19983;-81
2023/10/22 05:33:03;;;;;;;;;;;9.50;99.90;;;;;;21315787;27;19954;-80
2023/10/22 05:43:04;;;;;;;;;;;9.50;99.90;;;;;;21310826;27;19930;-81
2023/10/22 05:53:05;;;;;;;;;;;9.50;99.90;;;;;;21315869;27;20400;-80
2023/10/22 06:03:05;;;;;;;;;;;9.40;99.90;;;;;;21323021;27;19983;-80
2023/10/22 06:13:07;;;;;;;;;;;9.40;99.90;;;;;;21332419;27;19942;-80
2023/10/22 06:23:08;;;;;;;;;;;9.30;99.90;;;;;;21353316;27;19915;-80
2023/10/22 06:33:08;;;;;;;;;;;9.30;99.90;;;;;;21305485;27;20370;-81
2023/10/22 06:43:09;;;;;;;;;;;9.20;99.90;;;;;;21333816;27;19984;-81
2023/10/22 06:53:10;;;;;;;;;;;9.20;99.90;;;;;;21310349;27;19919;-80
2023/10/22 07:03:10;;;;;;;;;;;9.20;99.90;;;;;;21336764;27;19923;-79
2023/10/22 07:13:11;;;;;;;;;;;9.10;99.90;;;;;;21319083;27;19950;-81
2023/10/22 07:23:12;;;;;;;;;;;9.10;99.90;;;;;;21304015;27;19922;-80
2023/10/22 07:33:13;;;;;;;;;;;9.50;99.90;;;;;;21338494;27;20413;-78
2023/10/22 07:43:14;;;;;;;;;;;10.10;99.90;;;;;;21327427;27;19942;-80
2023/10/22 07:53:14;;;;;;;;;;;10.30;99.90;;;;;;21353936;27;19911;-80
2023/10/22 08:03:15;;;;;;;;;;;10.20;99.90;;;;;;21340403;27;19922;-80
2023/10/22 08:13:19;;;;;;;;;;;10.80;99.90;;;;;;21328025;27;20420;-80
2023/10/22 08:23:20;;;;;;;;;;;12.80;99.90;;;;;;21342030;27;19922;-80
2023/10/22 08:33:20;;;;;;;;;;;15.20;99.90;;;;;;21342376;27;19915;-80
2023/10/22 08:43:21;;;;;;;;;;;15.90;99.90;;;;;;21340315;27;19915;-79
2023/10/22 08:53:22;;;;;;;;;;;16.90;99.90;;;;;;21343249;27;20265;-79
2023/10/22 09:03:26;;;;;;;;;;;17.20;99.90;;;;;;21358082;27;19915;-82
2023/10/22 09:13:26;;;;;;;;;;;17.00;99.90;;;;;;21321021;27;19956;-82
2023/10/22 09:23:27;;;;;;;;;;;17.70;99.90;;;;;;21316911;27;19938;-82
2023/10/22 09:33:32;;;;;;;;;;;17.90;99.90;;;;;;21331645;27;19915;-81
2023/10/22 09:43:33;;;;;;;;;;;17.90;99.90;;;;;;21320869;27;19922;-81
2023/10/22 09:53:36;;;;;;;;;;;18.70;99.90;;;;;;21335521;27;19911;-81
2023/10/22 10:03:37;;;;;;;;;;;19.00;99.90;;;;;;21332486;27;19972;-82
2023/10/22 10:13:39;;;;;;;;;;;18.70;99.90;;;;;;21343924;27;19923;-80
2023/10/22 10:24:00;;;;;;;;;;;17.70;99.90;;;;;;21294252;27;20398;-81
2023/10/22 10:34:02;;;;;;;;;;;17.20;99.90;;;;;;21293248;27;19919;-81
2023/10/22 10:44:07;;;;;;;;;;;16.50;99.90;;;;;;21300288;27;19919;-80
2023/10/22 10:54:12;;;;;;;;;;;17.30;99.90;;;;;;21319562;27;19912;-81
2023/10/22 11:04:12;;;;;;;;;;;18.30;99.90;;;;;;21301209;27;19975;-82
2023/10/22 11:14:13;;;;;;;;;;;18.40;99.90;;;;;;21298976;27;19915;-80
2023/10/22 11:24:14;;;;;;;;;;;17.70;99.90;;;;;;21314556;27;19915;-80
2023/10/22 11:34:15;;;;;;;;;;;18.00;99.90;;;;;;21368725;27;19919;-79
2023/10/22 11:44:30;;;;;;;;;;;19.40;99.90;;;;;;21364085;27;19915;-78
2023/10/22 11:54:44;;;;;;;;;;;18.90;99.90;;;;;;21374903;27;19955;-79
2023/10/22 12:04:47;;;;;;;;;;;19.40;99.90;;;;;;21333910;27;19951;-81
2023/10/22 12:14:47;;;;;;;;;;;19.40;99.90;;;;;;21313577;27;20370;-81
2023/10/22 12:24:51;;;;;;;;;;;19.20;99.90;;;;;;21328900;27;19915;-80
2023/10/22 12:34:51;;;;;;;;;;;18.70;99.90;;;;;;21384391;27;19930;-80
2023/10/22 12:44:52;;;;;;;;;;;18.60;99.90;;;;;;21378826;27;19958;-79
2023/10/22 12:54:52;;;;;;;;;;;19.40;99.90;;;;;;21310320;27;20297;-78
2023/10/22 13:04:53;;;;;;;;;;;19.40;99.90;;;;;;21312146;27;19962;-79
2023/10/22 13:14:54;;;;;;;;;;;19.20;99.90;;;;;;21322809;27;20281;-78
2023/10/22 13:24:56;;;;;;;;;;;19.10;99.90;;;;;;21325680;27;20369;-81
2023/10/22 13:34:56;;;;;;;;;;;18.70;99.90;;;;;;21326801;27;20286;-78
2023/10/22 13:44:57;;;;;;;;;;;19.50;99.90;;;;;;21333636;27;20017;-80
2023/10/22 13:54:58;;;;;;;;;;;19.60;99.90;;;;;;21336649;27;19911;-80
2023/10/22 14:04:58;;;;;;;;;;;19.30;99.90;;;;;;21354869;27;19915;-79
2023/10/22 14:15:01;;;;;;;;;;;20.00;99.90;;;;;;21354027;27;20205;-81
2023/10/22 14:25:01;;;;;;;;;;;19.00;99.90;;;;;;21337383;27;19921;-79
2023/10/22 14:35:02;;;;;;;;;;;19.40;99.90;;;;;;21359432;27;19915;-81
2023/10/22 14:45:04;;;;;;;;;;;18.70;99.90;;;;;;21340511;27;20403;-80
2023/10/22 14:55:04;;;;;;;;;;;18.80;99.90;;;;;;21356477;27;19959;-79
2023/10/22 15:05:06;;;;;;;;;;;18.90;99.90;;;;;;21369478;27;19926;-80
2023/10/22 15:15:07;;;;;;;;;;;18.00;99.90;;;;;;21379221;27;20371;-79
2023/10/22 15:25:08;;;;;;;;;;;17.10;99.90;;;;;;21353826;27;19963;-79
2023/10/22 15:35:09;;;;;;;;;;;16.90;99.90;;;;;;21316381;27;20401;-80
2023/10/22 15:45:09;;;;;;;;;;;15.90;99.90;;;;;;21331528;27;19919;-80
2023/10/22 15:55:10;;;;;;;;;;;15.20;99.90;;;;;;21368110;27;19919;-80
2023/10/22 16:05:11;;;;;;;;;;;15.00;99.90;;;;;;21371572;27;19915;-79
2023/10/22 16:15:12;;;;;;;;;;;14.30;99.90;;;;;;21396858;27;19933;-78
2023/10/22 16:25:12;;;;;;;;;;;13.90;99.90;;;;;;21410032;27;19921;-80
2023/10/22 16:35:13;;;;;;;;;;;13.40;99.90;;;;;;21404443;27;19915;-80
2023/10/22 16:45:14;;;;;;;;;;;12.80;99.90;;;;;;21389819;27;19958;-80
2023/10/22 16:55:14;;;;;;;;;;;12.40;99.90;;;;;;21408133;27;19918;-80
2023/10/22 17:05:15;;;;;;;;;;;12.10;99.90;;;;;;21401343;27;19915;-80
2023/10/22 17:15:16;;;;;;;;;;;12.00;99.90;;;;;;21406252;27;19919;-79
2023/10/22 17:25:17;;;;;;;;;;;11.90;99.90;;;;;;21399989;27;19922;-80
2023/10/22 17:35:17;;;;;;;;;;;11.70;99.90;;;;;;21402397;27;19926;-81
2023/10/22 17:45:19;;;;;;;;;;;11.50;99.90;;;;;;21375008;27;19959;-80
2023/10/22 17:55:20;;;;;;;;;;;11.40;99.90;;;;;;21400103;27;19942;-80
2023/10/22 18:05:21;;;;;;;;;;;11.40;99.90;;;;;;21404536;27;19905;-78
2023/10/22 18:15:21;;;;;;;;;;;10.70;99.90;;;;;;21385761;27;19926;-80
2023/10/22 18:25:22;;;;;;;;;;;10.50;99.90;;;;;;21347091;27;20314;-79
2023/10/22 18:35:23;;;;;;;;;;;10.30;99.90;;;;;;21341516;27;19915;-79
2023/10/22 18:45:23;;;;;;;;;;;10.20;99.90;;;;;;21330359;27;19915;-78
2023/10/22 18:55:24;;;;;;;;;;;10.10;99.90;;;;;;21340162;27;19994;-77
2023/10/22 19:05:26;;;;;;;;;;;10.00;99.90;;;;;;21331171;27;21055;-78
2023/10/22 19:15:27;;;;;;;;;;;10.10;99.90;;;;;;21318624;27;20311;-79
2023/10/22 19:25:28;;;;;;;;;;;10.10;99.90;;;;;;21322944;27;19919;-78
2023/10/22 19:35:28;;;;;;;;;;;10.10;99.90;;;;;;21354544;27;19916;-79
2023/10/22 19:45:29;;;;;;;;;;;9.60;99.90;;;;;;21363654;27;19915;-79
2023/10/22 19:55:29;;;;;;;;;;;9.40;99.90;;;;;;21340381;27;19946;-79
2023/10/22 20:05:37;;;;;;;;;;;9.30;99.90;;;;;;21379384;27;20324;-79
2023/10/22 20:15:38;;;;;;;;;;;9.60;99.90;;;;;;21370373;27;19930;-79
2023/10/22 20:25:39;;;;;;;;;;;9.80;99.90;;;;;;21351913;27;20377;-78
2023/10/22 20:35:40;;;;;;;;;;;9.70;99.90;;;;;;21382567;27;19938;-77
2023/10/22 20:45:40;;;;;;;;;;;9.50;99.90;;;;;;21355055;27;19921;-78
2023/10/22 20:55:41;;;;;;;;;;;9.20;99.90;;;;;;21342571;27;19911;-77
2023/10/22 21:05:42;;;;;;;;;;;9.00;99.90;;;;;;21359098;27;20013;-79
2023/10/22 21:15:42;;;;;;;;;;;8.90;99.90;;;;;;21349267;27;19932;-78
2023/10/22 21:25:43;;;;;;;;;;;8.60;99.90;;;;;;21341329;27;19915;-78
2023/10/22 21:35:44;;;;;;;;;;;8.60;99.90;;;;;;21358096;27;20343;-80
2023/10/22 21:45:45;;;;;;;;;;;8.80;99.90;;;;;;21370938;27;19937;-79
2023/10/22 21:55:52;;;;;;;;;;;8.40;99.90;;;;;;21350217;27;19911;-79
2023/10/22 22:05:53;;;;;;;;;;;8.40;99.90;;;;;;21358434;27;19971;-78
2023/10/22 22:15:53;;;;;;;;;;;8.70;99.90;;;;;;21365994;27;19911;-79
2023/10/22 22:25:54;;;;;;;;;;;9.10;99.90;;;;;;21355730;27;19982;-78
2023/10/22 22:35:54;;;;;;;;;;;9.20;99.90;;;;;;21371274;27;19916;-78
2023/10/22 22:45:56;;;;;;;;;;;9.20;99.90;;;;;;21372904;27;19936;-79
2023/10/22 22:55:57;;;;;;;;;;;9.20;99.90;;;;;;21395221;27;19953;-80
2023/10/22 23:05:58;;;;;;;;;;;9.20;99.90;;;;;;21395743;27;19918;-80
2023/10/22 23:15:58;;;;;;;;;;;9.20;99.90;;;;;;21396115;27;19922;-80
2023/10/22 23:25:59;;;;;;;;;;;9.00;99.90;;;;;;21414796;27;19915;-79
2023/10/22 23:36:10;;;;;;;;;;;8.90;99.90;;;;;;21407829;27;19915;-79
2023/10/22 23:46:12;;;;;;;;;;;8.90;99.90;;;;;;21387545;27;19918;-80
2023/10/22 23:56:12;;;;;;;;;;;8.80;99.90;;;;;;21384503;27;19911;-80
